createdAt,value
2018-06-09T00:01:19.028Z,129.15
2018-06-09T00:03:50.089Z,128.93
2018-06-09T00:06:21.032Z,139.00
2018-06-09T00:08:52.192Z,132.35
2018-06-09T00:11:46.132Z,137.52
2018-06-09T00:14:17.185Z,146.55
2018-06-09T00:16:48.209Z,145.10
2018-06-09T00:19:35.748Z,139.65
2018-06-09T00:22:07.405Z,148.47
2018-06-09T00:24:38.619Z,144.45
2018-06-09T00:27:09.708Z,135.10
2018-06-09T00:29:40.853Z,132.05
2018-06-09T00:32:12.032Z,135.22
2018-06-09T00:34:43.237Z,138.92
2018-06-09T00:37:15.109Z,131.75
2018-06-09T00:39:47.201Z,137.00
2018-06-09T00:42:18.667Z,136.72
2018-06-09T00:45:52.969Z,137.68
2018-06-09T00:48:24.085Z,130.52
2018-06-09T00:50:55.655Z,136.07
2018-06-09T00:53:27.185Z,135.30
2018-06-09T00:56:10.396Z,132.40
2018-06-09T00:58:41.465Z,135.20
2018-06-09T01:01:12.672Z,132.07
2018-06-09T01:03:44.319Z,131.25
2018-06-09T01:06:15.576Z,136.82
2018-06-09T01:08:46.684Z,138.40
2018-06-09T01:11:17.887Z,136.52
2018-06-09T01:13:49.327Z,131.25
2018-06-09T01:16:20.547Z,138.60
2018-06-09T01:19:06.028Z,136.92
2018-06-09T01:21:37.140Z,134.63
2018-06-09T01:24:08.542Z,137.85
2018-06-09T01:26:44.630Z,134.22
2018-06-09T01:29:15.849Z,138.30
2018-06-09T01:31:46.927Z,135.55
2018-06-09T01:34:18.244Z,141.45
2018-06-09T01:36:49.384Z,132.37
2018-06-09T01:39:20.875Z,135.70
2018-06-09T01:41:51.956Z,137.12
2018-06-09T01:44:23.126Z,134.37
2018-06-09T01:46:54.285Z,131.37
2018-06-09T01:49:25.395Z,129.12
2018-06-09T01:51:56.444Z,138.40
2018-06-09T01:54:27.547Z,128.85
2018-06-09T01:56:58.646Z,117.75
2018-06-09T01:59:29.848Z,122.25
2018-06-09T02:02:00.955Z,126.40
2018-06-09T02:04:32.098Z,118.85
2018-06-09T02:07:22.149Z,122.78
2018-06-09T02:09:53.512Z,121.10
2018-06-09T02:12:24.685Z,130.93
2018-06-09T02:14:55.971Z,127.27
2018-06-09T02:17:27.012Z,126.18
2018-06-09T02:19:58.131Z,132.20
2018-06-09T02:22:29.324Z,122.98
2018-06-09T02:25:00.712Z,129.30
2018-06-09T02:27:32.031Z,129.57
2018-06-09T02:30:03.456Z,135.05
2018-06-09T02:32:34.491Z,128.18
2018-06-09T02:35:05.961Z,131.60
2018-06-09T02:37:37.149Z,125.82
2018-06-09T02:40:08.173Z,129.57
2018-06-09T02:42:39.269Z,131.90
2018-06-09T02:45:10.492Z,125.35
2018-06-09T02:47:41.695Z,134.10
2018-06-09T02:50:12.891Z,132.12
2018-06-09T02:52:43.976Z,127.45
2018-06-09T02:55:33.852Z,127.50
2018-06-09T02:58:04.937Z,132.07
2018-06-09T03:00:36.451Z,147.80
2018-06-09T03:03:07.520Z,180.87
2018-06-09T03:05:38.660Z,139.68
2018-06-09T03:08:13.138Z,134.03
2018-06-09T03:10:44.244Z,127.78
2018-06-09T03:13:15.451Z,127.40
2018-06-09T03:15:47.333Z,133.87
2018-06-09T03:18:18.455Z,139.55
2018-06-09T03:20:55.373Z,129.55
2018-06-09T03:23:26.504Z,130.97
2018-06-09T03:25:57.490Z,128.50
2018-06-09T03:28:28.992Z,127.42
2018-06-09T03:31:00.414Z,128.50
2018-06-09T03:33:31.553Z,132.37
2018-06-09T03:36:02.906Z,124.55
2018-06-09T03:38:34.051Z,124.12
2018-06-09T03:41:13.689Z,128.57
2018-06-09T03:43:44.482Z,126.20
2018-06-09T03:46:15.487Z,129.75
2018-06-09T03:48:47.065Z,128.97
2018-06-09T03:51:18.291Z,137.60
2018-06-09T03:53:49.568Z,135.12
2018-06-09T03:56:21.053Z,132.05
2018-06-09T03:58:52.320Z,130.25
2018-06-09T04:01:24.113Z,128.12
2018-06-09T04:03:55.360Z,122.22
2018-06-09T04:06:27.572Z,128.12
2018-06-09T04:08:58.636Z,124.87
2018-06-09T04:11:35.860Z,128.00
2018-06-09T04:14:06.996Z,124.50
2018-06-09T04:16:38.712Z,133.72
2018-06-09T04:19:10.064Z,129.23
2018-06-09T04:21:41.190Z,131.72
2018-06-09T04:24:12.387Z,131.25
2018-06-09T04:26:43.937Z,130.95
2018-06-09T04:29:15.184Z,128.82
2018-06-09T04:31:46.307Z,134.72
2018-06-09T04:34:17.530Z,129.65
2018-06-09T04:36:48.889Z,127.60
2018-06-09T04:39:19.951Z,130.00
2018-06-09T04:41:51.367Z,128.10
2018-06-09T04:44:22.628Z,131.60
2018-06-09T04:46:53.664Z,131.12
2018-06-09T04:49:24.691Z,132.05
2018-06-09T04:51:56.446Z,133.07
2018-06-09T04:54:27.615Z,129.72
2018-06-09T04:56:58.888Z,125.35
2018-06-09T04:59:36.948Z,129.42
2018-06-09T05:02:08.841Z,131.27
2018-06-09T05:04:40.060Z,124.67
2018-06-09T05:07:11.291Z,126.05
2018-06-09T05:09:42.231Z,126.72
2018-06-09T05:12:13.050Z,132.93
2018-06-09T05:14:43.928Z,133.95
2018-06-09T05:17:14.749Z,132.40
2018-06-09T05:19:45.550Z,133.32
2018-06-09T05:22:16.652Z,130.67
2018-06-09T05:24:47.525Z,137.50
2018-06-09T05:27:18.976Z,141.07
2018-06-09T05:29:49.961Z,137.57
2018-06-09T05:32:21.135Z,133.70
2018-06-09T05:34:52.238Z,133.97
2018-06-09T05:37:23.456Z,134.10
2018-06-09T05:39:54.524Z,137.57
2018-06-09T05:42:26.395Z,136.85
2018-06-09T05:44:58.093Z,136.35
2018-06-09T05:47:35.408Z,135.90
2018-06-09T05:50:06.518Z,135.78
2018-06-09T05:52:37.791Z,135.18
2018-06-09T05:55:08.924Z,144.10
2018-06-09T05:57:40.345Z,144.72
2018-06-09T06:00:11.418Z,141.30
2018-06-09T06:02:42.554Z,144.28
2018-06-09T06:05:13.772Z,142.62
2018-06-09T06:07:45.113Z,140.55
2018-06-09T06:10:16.501Z,141.05
2018-06-09T06:12:47.632Z,142.18
2018-06-09T06:15:19.242Z,146.82
2018-06-09T06:17:50.383Z,138.25
2018-06-09T06:20:21.559Z,138.07
2018-06-09T06:22:53.112Z,136.43
2018-06-09T06:25:42.679Z,142.32
2018-06-09T06:28:13.832Z,139.35
2018-06-09T06:30:45.220Z,136.88
2018-06-09T06:36:12.407Z,145.90
2018-06-09T06:38:43.715Z,134.20
2018-06-09T06:41:14.959Z,142.80
2018-06-09T06:43:46.307Z,145.55
2018-06-09T06:46:17.548Z,145.43
2018-06-09T06:48:49.090Z,151.85
2018-06-09T06:51:20.343Z,154.30
2018-06-09T06:53:51.298Z,138.77
2018-06-09T06:56:23.848Z,135.50
2018-06-09T06:58:55.182Z,145.05
2018-06-09T07:01:26.252Z,139.07
2018-06-09T07:04:02.845Z,145.30
2018-06-09T07:06:33.935Z,140.20
2018-06-09T07:09:06.761Z,139.30
2018-06-09T07:11:37.995Z,140.50
2018-06-09T07:14:09.405Z,135.97
2018-06-09T07:16:40.600Z,135.78
2018-06-09T07:19:14.413Z,136.50
2018-06-09T07:21:45.612Z,143.57
2018-06-09T07:24:16.728Z,141.45
2018-06-09T07:26:51.190Z,137.88
2018-06-09T07:29:22.215Z,143.32
2018-06-09T07:31:53.377Z,141.65
2018-06-09T07:34:29.716Z,147.90
2018-06-09T07:37:01.023Z,146.70
2018-06-09T07:39:32.095Z,148.70
2018-06-09T07:42:03.196Z,150.75
2018-06-09T07:44:34.729Z,152.00
2018-06-09T07:47:05.690Z,154.85
2018-06-09T07:49:37.017Z,148.25
2018-06-09T07:52:08.096Z,150.90
2018-06-09T07:54:39.320Z,147.53
2018-06-09T07:57:11.168Z,149.65
2018-06-09T07:59:42.941Z,147.40
2018-06-09T08:02:14.079Z,152.90
2018-06-09T08:04:53.116Z,145.38
2018-06-09T08:07:23.903Z,151.57
2018-06-09T08:09:54.888Z,146.22
2018-06-09T08:12:25.992Z,145.12
2018-06-09T08:14:57.133Z,148.30
2018-06-09T08:17:27.955Z,142.50
2018-06-09T08:19:59.190Z,144.62
2018-06-09T08:22:30.752Z,141.20
2018-06-09T08:25:02.129Z,145.68
2018-06-09T08:30:09.677Z,140.05
2018-06-09T08:32:40.903Z,139.70
2018-06-09T08:35:11.796Z,139.90
2018-06-09T08:37:42.925Z,142.13
2018-06-09T08:40:14.175Z,136.00
2018-06-09T08:42:45.247Z,138.85
2018-06-09T08:45:16.549Z,134.07
2018-06-09T08:47:47.653Z,127.35
2018-06-09T08:50:18.848Z,134.47
2018-06-09T08:52:50.152Z,131.22
2018-06-09T08:55:21.848Z,131.30
2018-06-09T08:57:53.127Z,139.62
2018-06-09T09:00:24.399Z,134.00
2018-06-09T09:02:55.488Z,133.32
2018-06-09T09:05:26.567Z,138.40
2018-06-09T09:07:57.371Z,137.00
2018-06-09T09:10:28.816Z,140.85
2018-06-09T09:13:00.038Z,138.07
2018-06-09T09:15:31.978Z,138.68
2018-06-09T09:18:03.137Z,139.50
2018-06-09T09:20:34.371Z,143.37
2018-06-09T09:23:06.470Z,139.60
2018-06-09T09:25:38.095Z,142.77
2018-06-09T09:28:09.574Z,136.47
2018-06-09T09:30:41.228Z,139.72
2018-06-09T09:33:12.387Z,140.75
2018-06-09T09:35:43.615Z,137.90
2018-06-09T09:38:14.664Z,137.65
2018-06-09T09:40:46.129Z,132.45
2018-06-09T09:43:17.268Z,134.82
2018-06-09T09:45:48.599Z,139.10
2018-06-09T09:48:19.856Z,130.93
2018-06-09T09:50:50.985Z,135.78
2018-06-09T09:53:22.014Z,138.22
2018-06-09T09:55:54.069Z,139.50
2018-06-09T09:58:25.205Z,141.53
2018-06-09T10:00:56.409Z,139.43
2018-06-09T10:03:27.609Z,144.85
2018-06-09T10:05:58.643Z,143.25
2018-06-09T10:08:35.660Z,136.95
2018-06-09T10:11:06.751Z,145.30
2018-06-09T10:13:37.960Z,141.82
2018-06-09T10:16:09.467Z,147.75
2018-06-09T10:18:40.636Z,154.45
2018-06-09T10:21:33.953Z,139.20
2018-06-09T10:24:05.029Z,140.18
2018-06-09T10:26:36.452Z,137.10
2018-06-09T10:29:07.616Z,139.90
2018-06-09T10:31:39.006Z,146.55
2018-06-09T10:34:10.347Z,144.28
2018-06-09T10:36:41.368Z,144.45
2018-06-09T10:39:12.533Z,143.45
2018-06-09T10:41:43.914Z,146.50
2018-06-09T10:44:15.009Z,146.45
2018-06-09T10:46:46.152Z,162.03
2018-06-09T10:49:17.395Z,145.92
2018-06-09T10:51:48.799Z,140.57
2018-06-09T10:54:19.966Z,134.82
2018-06-09T10:56:51.024Z,142.03
2018-06-09T10:59:22.201Z,146.87
2018-06-09T11:01:53.745Z,135.50
2018-06-09T11:04:24.867Z,144.17
2018-06-09T11:06:55.859Z,151.90
2018-06-09T11:09:26.772Z,144.80
2018-06-09T11:11:57.648Z,148.85
2018-06-09T11:14:28.460Z,144.13
2018-06-09T11:16:59.280Z,145.85
2018-06-09T11:19:30.144Z,153.32
2018-06-09T11:22:05.069Z,151.57
2018-06-09T11:24:37.477Z,140.40
2018-06-09T11:27:08.977Z,142.60
2018-06-09T11:29:40.065Z,137.35
2018-06-09T11:32:11.616Z,144.57
2018-06-09T11:34:42.891Z,138.43
2018-06-09T11:37:14.004Z,146.28
2018-06-09T11:39:45.101Z,138.20
2018-06-09T11:42:16.394Z,133.25
2018-06-09T11:44:47.441Z,133.25
2018-06-09T11:47:18.661Z,133.25
2018-06-09T11:49:49.853Z,136.32
2018-06-09T11:52:20.992Z,131.70
2018-06-09T11:54:52.175Z,132.80
2018-06-09T11:57:24.061Z,133.67
2018-06-09T11:59:55.295Z,131.67
2018-06-09T12:02:30.682Z,136.62
2018-06-09T12:05:01.491Z,132.95
2018-06-09T12:07:32.371Z,132.20
2018-06-09T12:10:03.561Z,133.72
2018-06-09T12:12:35.459Z,134.93
2018-06-09T12:15:06.447Z,132.45
2018-06-09T12:17:37.887Z,132.05
2018-06-09T12:20:08.754Z,129.03
2018-06-09T12:22:40.600Z,137.20
2018-06-09T12:25:11.413Z,142.55
2018-06-09T12:27:42.557Z,143.13
2018-06-09T12:30:13.994Z,132.10
2018-06-09T12:32:45.225Z,130.30
2018-06-09T12:35:16.544Z,134.47
2018-06-09T12:37:47.670Z,131.40
2018-06-09T12:40:18.903Z,125.30
2018-06-09T12:42:53.999Z,130.35
2018-06-09T12:45:25.327Z,129.07
2018-06-09T12:47:56.140Z,132.63
2018-06-09T12:50:27.330Z,124.90
2018-06-09T12:53:10.861Z,130.85
2018-06-09T12:55:42.001Z,125.27
2018-06-09T12:58:13.041Z,128.85
2018-06-09T13:00:44.176Z,127.42
2018-06-09T13:03:15.065Z,127.15
2018-06-09T13:05:45.906Z,129.68
2018-06-09T13:08:16.752Z,126.12
2018-06-09T13:10:47.556Z,129.40
2018-06-09T13:13:22.432Z,128.70
2018-06-09T13:15:53.627Z,133.70
2018-06-09T13:18:25.204Z,135.48
2018-06-09T13:23:54.884Z,124.42
2018-06-09T13:26:25.920Z,124.30
2018-06-09T13:28:57.052Z,124.97
2018-06-09T13:31:27.904Z,122.20
2018-06-09T13:33:59.151Z,126.27
2018-06-09T13:36:30.144Z,132.27
2018-06-09T13:39:01.048Z,129.78
2018-06-09T13:41:32.296Z,132.20
2018-06-09T13:44:03.276Z,128.38
2018-06-09T13:46:34.413Z,134.47
2018-06-09T13:49:05.748Z,130.80
2018-06-09T13:51:49.151Z,131.65
2018-06-09T13:54:20.424Z,133.63
2018-06-09T13:56:51.657Z,134.93
2018-06-09T13:59:22.846Z,128.55
2018-06-09T14:01:57.424Z,127.85
2018-06-09T14:04:28.372Z,126.30
2018-06-09T14:06:59.447Z,133.97
2018-06-09T14:09:30.566Z,130.90
2018-06-09T14:12:01.680Z,127.85
2018-06-09T14:14:32.884Z,127.50
2018-06-09T14:17:04.204Z,130.87
2018-06-09T14:19:35.272Z,125.20
2018-06-09T14:22:06.514Z,128.05
2018-06-09T14:24:37.349Z,125.18
2018-06-09T14:27:08.528Z,130.55
2018-06-09T14:29:39.999Z,127.65
2018-06-09T14:32:11.055Z,132.30
2018-06-09T14:34:56.011Z,139.75
2018-06-09T14:37:27.257Z,171.43
2018-06-09T14:39:58.089Z,139.95
2018-06-09T14:42:29.217Z,139.18
2018-06-09T14:45:00.205Z,135.35
2018-06-09T14:47:31.058Z,131.47
2018-06-09T14:50:02.209Z,132.20
2018-06-09T14:52:33.072Z,134.50
2018-06-09T14:55:04.282Z,136.18
2018-06-09T14:57:35.515Z,141.20
2018-06-09T15:00:06.913Z,130.43
2018-06-09T15:03:00.599Z,132.50
2018-06-09T15:05:31.989Z,137.28
2018-06-09T15:08:03.506Z,137.25
2018-06-09T15:10:35.356Z,130.17
2018-06-09T15:13:06.443Z,137.37
2018-06-09T15:15:37.950Z,133.20
2018-06-09T15:18:09.057Z,133.80
2018-06-09T15:20:40.200Z,135.40
2018-06-09T15:23:11.015Z,130.25
2018-06-09T15:25:41.841Z,130.52
2018-06-09T15:28:13.042Z,134.85
2018-06-09T15:30:44.234Z,133.70
2018-06-09T15:33:15.227Z,137.32
2018-06-09T15:35:57.456Z,138.68
2018-06-09T15:38:29.629Z,134.10
2018-06-09T15:41:00.778Z,141.40
2018-06-09T15:43:37.069Z,143.80
2018-06-09T15:46:07.952Z,140.43
2018-06-09T15:48:38.761Z,138.97
2018-06-09T15:51:10.172Z,144.32
2018-06-09T15:53:41.007Z,141.03
2018-06-09T15:56:12.145Z,144.20
2018-06-09T15:58:43.002Z,144.28
2018-06-09T16:01:14.513Z,159.07
2018-06-09T16:03:45.632Z,150.57
2018-06-09T16:06:16.465Z,145.70
2018-06-09T16:08:47.304Z,139.85
2018-06-09T16:11:18.173Z,139.25
2018-06-09T16:13:48.997Z,140.95
2018-06-09T16:16:20.015Z,146.95
2018-06-09T16:18:51.235Z,171.53
2018-06-09T16:21:22.247Z,140.50
2018-06-09T16:24:00.633Z,148.17
2018-06-09T16:26:32.050Z,145.80
2018-06-09T16:29:03.274Z,147.07
2018-06-09T16:31:34.448Z,140.85
2018-06-09T16:34:05.753Z,141.70
2018-06-09T16:36:40.339Z,144.45
2018-06-09T16:39:14.602Z,146.93
2018-06-09T16:41:46.289Z,140.82
2018-06-09T16:44:17.516Z,143.82
2018-06-09T16:46:48.477Z,139.55
2018-06-09T22:46:22.393Z,127.38
2018-06-09T22:48:53.592Z,127.78
2018-06-09T22:51:24.957Z,133.87
2018-06-09T22:53:56.497Z,133.87
2018-06-09T22:56:27.648Z,130.97
2018-06-09T22:58:58.882Z,130.57
2018-06-09T23:01:29.974Z,135.85
2018-06-09T23:04:01.687Z,137.15
2018-06-09T23:09:30.852Z,126.05
2018-06-09T23:12:01.963Z,136.85
2018-06-09T23:14:42.798Z,136.70
2018-06-09T23:17:13.900Z,140.12
2018-06-09T23:19:45.030Z,128.30
2018-06-09T23:22:15.914Z,132.60
2018-06-09T23:24:46.816Z,139.62
2018-06-09T23:27:17.677Z,137.62
2018-06-09T23:29:48.705Z,131.72
2018-06-09T23:32:19.531Z,134.60
2018-06-09T23:34:51.011Z,138.10
2018-06-09T23:37:21.828Z,135.85
2018-06-09T23:39:53.085Z,139.20
2018-06-09T23:42:24.285Z,134.35
2018-06-09T23:44:55.940Z,140.82
2018-06-09T23:47:27.223Z,136.10
2018-06-09T23:49:58.914Z,135.03
2018-06-09T23:52:30.017Z,135.22
2018-06-09T23:55:01.139Z,129.10
2018-06-09T23:57:32.257Z,129.65
